Echo, LA (71330)

1:29 PM CDT on July 29, 2016 (GMT -0500)
Hwy 454 Rapides/Avoyelles Parish Line | | Change Station

Elev 105 ft 31.16 °N, 92.22 °W | Updated 39 minutes ago

Partly Cloudy
Partly Cloudy
82.6 °F
Feels Like 97 °F
N
0.0
Wind Variable Wind from SE

Today
High -- | Low -- °F
--% Chance of Precip.
Yesterday
High -- | Low -- °F
Precip. -- in
Pressure 30.04 in
Visibility 10.0 miles
Clouds Few 2100 ft
Few 6000 ft
Heat Index 97 °F
Dew Point 82 °F
Humidity 99%
Rainfall 0.07 in
Snow Depth Not available.
6:24 AM 8:06 PM
Waning Crescent, 20% visible
METAR KESF 291753Z AUTO VRB03KT 10SM VCTS FEW021 FEW060 31/26 A3004 RMK AO2 LTG DSNT E AND SE SLP171 T03060256 10311 20228 58008
Pressure 30.04 in
Visibility 10.0 miles
Clouds Few 2100 ft
Few 6000 ft
Heat Index 97 °F
Dew Point 82 °F
Humidity 99%
Rainfall 0.07 in
Snow Depth Not available.
6:24 AM 8:06 PM
Waning Crescent, 20% visible
METAR KESF 291753Z AUTO VRB03KT 10SM VCTS FEW021 FEW060 31/26 A3004 RMK AO2 LTG DSNT E AND SE SLP171 T03060256 10311 20228 58008

10-Day Weather Forecast

Almanac

Astronomy

Jul. 29, 2016 Rise Set
Actual Time
Civil Twilight
Nautical Twilight
Astronomical Twilight
Moon
Length of Visible Light
Length of Day
Tomorrow will be .
, % of the Moon is Illuminated

Today's Extremes

State Highs State Lows

Community

WunderPhotos

Upload Photos

1,928,392 photos uploaded!

WunderBlog® & News

Nearby

Air Quality

  Air Quality AQ Index Pollutant
Not available.

Snow Depth

Station Depth Elevation

Earthquake Activity

City Distance Mag. Time & Date
Minimum magnitude displayed is 2.5.

Coastal Water Temperatures

Place Temperature

Stations

Nearby Weather Stations

Station Location Temp. Windchill Dew Point Humidity Wind Precip. Elev Updated Type
                   

Watches & Warnings

There are currently no watches in effect.